createdAt,value
2022-09-07T00:01:00.906Z,13.29
2022-09-07T00:06:12.733Z,11.83
2022-09-07T00:11:18.429Z,9.84
2022-09-07T00:16:30.488Z,8.98
2022-09-07T00:21:33.951Z,12.15
2022-09-07T00:26:36.813Z,12.62
2022-09-07T00:31:39.824Z,10.40
2022-09-07T00:36:42.693Z,10.66
2022-09-07T00:41:45.496Z,12.73
2022-09-07T00:46:48.497Z,10.67
2022-09-07T00:51:57.788Z,9.00
2022-09-07T00:57:00.986Z,7.89
2022-09-07T01:02:04.754Z,8.76
2022-09-07T01:07:09.020Z,12.21
2022-09-07T01:12:11.871Z,12.32
2022-09-07T01:17:39.885Z,10.10
2022-09-07T01:23:07.771Z,10.61
2022-09-07T01:28:21.460Z,12.71
2022-09-07T01:33:48.894Z,10.45
2022-09-07T01:38:59.179Z,9.00
2022-09-07T01:44:40.650Z,11.62
2022-09-07T01:50:05.215Z,12.26
2022-09-07T01:55:21.864Z,9.92
2022-09-07T02:00:25.152Z,10.48
2022-09-07T02:05:43.424Z,12.90
2022-09-07T02:10:56.682Z,10.93
2022-09-07T02:16:16.865Z,9.19
2022-09-07T02:21:25.350Z,9.82
2022-09-07T02:26:29.608Z,12.57
2022-09-07T02:31:33.093Z,10.61
2022-09-07T02:36:41.709Z,8.87
2022-09-07T02:41:45.817Z,9.40
2022-09-07T02:46:51.711Z,12.33
2022-09-07T02:52:13.364Z,10.67
2022-09-07T02:57:22.517Z,8.76
2022-09-07T03:02:35.961Z,9.96
2022-09-07T03:07:54.027Z,12.12
2022-09-07T03:12:57.167Z,9.77
2022-09-07T03:18:00.219Z,9.93
2022-09-07T03:23:03.023Z,12.57
2022-09-07T03:28:06.233Z,10.82
2022-09-07T03:33:09.049Z,9.02
2022-09-07T03:38:11.976Z,9.61
2022-09-07T03:43:14.767Z,12.44
2022-09-07T03:48:17.584Z,10.80
2022-09-07T03:53:20.411Z,8.79
2022-09-07T03:58:23.246Z,9.51
2022-09-07T04:03:26.575Z,12.39
2022-09-07T04:08:30.558Z,10.86
2022-09-07T04:13:36.076Z,8.89
2022-09-07T04:18:39.257Z,9.43
2022-09-07T04:23:43.097Z,12.54
2022-09-07T04:28:46.922Z,11.16
2022-09-07T04:33:51.190Z,9.36
2022-09-07T04:39:02.676Z,10.21
2022-09-07T04:44:05.600Z,12.86
2022-09-07T04:49:12.129Z,10.98
2022-09-07T04:54:14.992Z,9.50
2022-09-07T04:59:17.863Z,10.52
2022-09-07T05:04:20.688Z,13.17
2022-09-07T05:09:23.511Z,11.46
2022-09-07T05:14:26.465Z,10.02
2022-09-07T05:19:29.422Z,11.62
2022-09-07T05:24:34.493Z,13.74
2022-09-07T05:35:00.142Z,10.69
2022-09-07T05:40:03.438Z,12.18
2022-09-07T05:45:06.632Z,14.46
2022-09-07T05:50:11.601Z,12.59
2022-09-07T05:55:41.396Z,11.47
2022-09-07T06:01:16.380Z,12.76
2022-09-07T06:07:19.957Z,15.46
2022-09-07T06:12:16.840Z,13.57
2022-09-07T06:18:23.553Z,12.47
2022-09-07T06:23:52.302Z,14.12
2022-09-07T06:29:30.275Z,15.64
2022-09-07T06:34:45.119Z,13.82
2022-09-07T06:39:51.054Z,12.90
2022-09-07T06:45:25.820Z,13.92
2022-09-07T06:51:19.984Z,16.25
2022-09-07T06:56:27.465Z,14.73
2022-09-07T07:01:32.432Z,13.99
2022-09-07T07:06:39.389Z,13.51
2022-09-07T07:11:43.721Z,14.73
2022-09-07T07:16:46.844Z,16.74
2022-09-07T07:22:10.700Z,15.41
2022-09-07T07:27:12.427Z,14.67
2022-09-07T07:32:15.651Z,14.33
2022-09-07T07:37:18.935Z,14.13
2022-09-07T07:42:21.771Z,14.23
2022-09-07T07:47:24.525Z,16.97
2022-09-07T07:57:56.343Z,15.72
2022-09-07T08:02:59.103Z,15.39
2022-09-07T08:08:02.134Z,15.27
2022-09-07T08:13:05.256Z,15.19
2022-09-07T08:18:08.052Z,15.15
2022-09-07T08:23:11.981Z,15.21
2022-09-07T08:28:15.013Z,15.27
2022-09-07T08:33:18.372Z,15.35
2022-09-07T08:38:21.324Z,15.47
2022-09-07T08:43:50.146Z,15.59
2022-09-07T08:48:54.527Z,15.72
2022-09-07T08:53:58.834Z,15.87
2022-09-07T08:59:14.345Z,16.02
2022-09-07T09:04:21.547Z,16.20
2022-09-07T09:09:45.672Z,16.35
2022-09-07T09:15:10.368Z,16.54
2022-09-07T09:20:44.442Z,16.70
2022-09-07T09:25:52.608Z,16.82
2022-09-07T09:30:55.492Z,16.85
2022-09-07T09:36:01.512Z,16.94
2022-09-07T09:41:07.816Z,17.05
2022-09-07T09:46:34.237Z,17.12
2022-09-07T09:57:15.590Z,17.41
2022-09-07T10:07:53.797Z,17.56
2022-09-07T10:12:57.182Z,17.62
2022-09-07T10:18:00.069Z,17.67
2022-09-07T10:23:04.997Z,17.72
2022-09-07T10:28:12.686Z,17.80
2022-09-07T10:33:21.510Z,17.96
2022-09-07T10:38:27.549Z,18.21
2022-09-07T10:43:42.596Z,18.34
2022-09-07T10:48:55.119Z,18.43
2022-09-07T11:00:12.488Z,18.58
2022-09-07T11:05:24.560Z,18.68
2022-09-07T11:10:46.000Z,18.79
2022-09-07T11:16:03.102Z,18.92
2022-09-07T11:21:14.869Z,19.06
2022-09-07T11:26:20.558Z,19.11
2022-09-07T11:31:38.447Z,19.13
2022-09-07T11:36:51.082Z,19.21
2022-09-07T11:42:42.587Z,19.31
2022-09-07T11:47:38.792Z,19.44
2022-09-07T11:52:46.912Z,19.47
2022-09-07T11:58:11.458Z,19.52
2022-09-07T12:03:26.406Z,19.51
2022-09-07T12:08:59.855Z,19.56
2022-09-07T12:14:25.147Z,19.67
2022-09-07T12:19:28.625Z,19.78
2022-09-07T12:24:51.367Z,19.89
2022-09-07T12:30:01.920Z,20.04
2022-09-07T12:35:06.236Z,20.15
2022-09-07T12:40:30.309Z,20.33
2022-09-07T12:45:39.001Z,20.41
2022-09-07T12:51:00.979Z,20.39
2022-09-07T12:56:41.363Z,20.37
2022-09-07T13:02:08.603Z,20.45
2022-09-07T13:07:26.895Z,20.50
2022-09-07T13:17:56.493Z,20.64
2022-09-07T13:23:25.328Z,20.72
2022-09-07T13:28:37.532Z,20.99
2022-09-07T13:33:48.265Z,21.26
2022-09-07T13:38:53.598Z,21.42
2022-09-07T13:44:01.927Z,21.58
2022-09-07T13:49:15.451Z,21.65
2022-09-07T13:54:33.332Z,21.48
2022-09-07T13:59:36.454Z,21.50
2022-09-07T14:04:44.494Z,21.60
2022-09-07T14:09:50.089Z,21.76
2022-09-07T14:15:33.416Z,21.96
2022-09-07T14:20:48.966Z,22.13
2022-09-07T14:26:18.015Z,22.47
2022-09-07T14:31:23.984Z,22.92
2022-09-07T14:36:45.491Z,23.47
2022-09-07T14:41:49.673Z,24.06
2022-09-07T14:46:56.555Z,24.47
2022-09-07T14:52:00.871Z,24.66
2022-09-07T14:57:05.616Z,24.59
2022-09-07T15:02:37.322Z,24.16
2022-09-07T15:07:45.484Z,23.43
2022-09-07T15:12:50.744Z,22.80
2022-09-07T15:18:04.636Z,22.12
2022-09-07T15:23:16.433Z,21.56
2022-09-07T15:33:57.403Z,21.42
2022-09-07T15:39:01.073Z,21.88
2022-09-07T15:44:05.173Z,22.93
2022-09-07T15:49:08.007Z,24.25
2022-09-07T15:54:13.064Z,25.24
2022-09-07T15:59:16.701Z,25.60
2022-09-07T16:04:19.866Z,25.03
2022-09-07T16:09:23.610Z,24.17
2022-09-07T16:14:26.381Z,23.40
2022-09-07T16:19:29.260Z,23.18
2022-09-07T16:24:32.366Z,23.10
2022-09-07T16:29:35.538Z,22.82
2022-09-07T16:34:38.985Z,22.45
2022-09-07T16:39:41.986Z,21.96
2022-09-07T16:44:44.904Z,21.36
2022-09-07T16:49:47.970Z,20.66
2022-09-07T16:54:51.204Z,19.84
2022-09-07T16:59:54.087Z,18.99
2022-09-07T17:04:56.889Z,18.18
2022-09-07T17:09:59.586Z,17.51
2022-09-07T17:15:02.393Z,16.95
2022-09-07T17:20:05.362Z,16.42
2022-09-07T17:25:08.843Z,15.90
2022-09-07T17:30:12.836Z,15.39
2022-09-07T17:35:17.752Z,14.94
2022-09-07T17:40:20.617Z,14.51
2022-09-07T17:45:23.468Z,14.10
2022-09-07T17:50:26.675Z,13.74
2022-09-07T17:55:29.709Z,13.37
2022-09-07T18:00:34.394Z,13.05
2022-09-07T18:05:37.141Z,12.76
2022-09-07T18:16:15.177Z,17.31
2022-09-07T18:21:23.830Z,16.49
2022-09-07T18:26:27.070Z,14.85
2022-09-07T18:31:29.979Z,13.92
2022-09-07T18:36:34.268Z,13.28
2022-09-07T18:41:40.672Z,12.75
2022-09-07T18:46:43.714Z,14.08
2022-09-07T18:57:09.294Z,15.70
2022-09-07T19:02:12.156Z,14.16
2022-09-07T19:07:15.596Z,13.23
2022-09-07T19:12:18.398Z,14.14
2022-09-07T19:17:21.177Z,16.91
2022-09-07T19:22:23.995Z,16.92
2022-09-07T19:27:27.414Z,14.80
2022-09-07T19:32:30.213Z,13.47
2022-09-07T19:37:33.320Z,12.52
2022-09-07T19:42:36.122Z,12.51
2022-09-07T19:47:39.026Z,15.75
2022-09-07T19:52:42.748Z,16.22
2022-09-07T19:57:47.596Z,14.13
2022-09-07T20:02:51.225Z,12.87
2022-09-07T20:07:54.038Z,13.51
2022-09-07T20:12:56.881Z,16.32
2022-09-07T20:17:59.767Z,16.02
2022-09-07T20:23:02.545Z,13.92
2022-09-07T20:28:05.470Z,12.67
2022-09-07T20:33:08.237Z,11.77
2022-09-07T20:38:11.622Z,12.07
2022-09-07T20:43:15.423Z,15.33
2022-09-07T20:48:18.259Z,15.81
2022-09-07T20:53:21.247Z,13.63
2022-09-07T20:58:24.057Z,12.25
2022-09-07T21:03:27.084Z,11.49
2022-09-07T21:08:31.121Z,14.05
2022-09-07T21:13:34.992Z,15.19
2022-09-07T21:18:38.658Z,13.23
2022-09-07T21:23:41.450Z,11.95
2022-09-07T21:28:44.226Z,11.48
2022-09-07T21:33:47.135Z,14.40
2022-09-07T21:38:50.699Z,16.31
2022-09-07T21:44:01.177Z,14.95
2022-09-07T21:49:04.864Z,13.05
2022-09-07T21:54:07.875Z,12.00
2022-09-07T21:59:10.784Z,11.25
2022-09-07T22:04:13.688Z,10.63
2022-09-07T22:09:16.826Z,11.82
2022-09-07T22:14:19.673Z,15.15
2022-09-07T22:19:22.581Z,14.38
2022-09-07T22:24:25.416Z,12.55
2022-09-07T22:29:29.098Z,12.99
2022-09-07T22:34:31.907Z,15.52
2022-09-07T22:39:34.795Z,13.88
2022-09-07T22:44:39.036Z,12.33
2022-09-07T22:49:41.801Z,12.91
2022-09-07T22:54:45.835Z,15.38
2022-09-07T22:59:48.700Z,13.58
2022-09-07T23:04:51.647Z,12.09
2022-09-07T23:09:54.887Z,12.89
2022-09-07T23:14:57.698Z,15.08
2022-09-07T23:20:00.469Z,13.15
2022-09-07T23:25:04.420Z,11.71
2022-09-07T23:30:07.847Z,12.50
2022-09-07T23:35:14.813Z,15.21
2022-09-07T23:40:20.506Z,13.56
2022-09-07T23:45:23.326Z,11.96
2022-09-07T23:50:26.145Z,12.51
2022-09-07T23:55:28.955Z,15.18
